sensor_id;sensor_type;location;lat;lon;timestamp;temperature;humidity
9907;DHT22;4992;51.628;6.664;2023-12-20T00:02:13;7.00;99.90
9907;DHT22;4992;51.628;6.664;2023-12-20T00:04:39;6.90;99.90
9907;DHT22;4992;51.628;6.664;2023-12-20T00:07:04;6.90;99.90
9907;DHT22;4992;51.628;6.664;2023-12-20T00:09:30;6.80;99.90
9907;DHT22;4992;51.628;6.664;2023-12-20T00:11:55;6.70;99.90
9907;DHT22;4992;51.628;6.664;2023-12-20T00:14:22;6.70;99.90
9907;DHT22;4992;51.628;6.664;2023-12-20T00:16:47;6.70;99.90
9907;DHT22;4992;51.628;6.664;2023-12-20T00:19:13;6.60;99.90
9907;DHT22;4992;51.628;6.664;2023-12-20T00:21:38;6.60;99.90
9907;DHT22;4992;51.628;6.664;2023-12-20T00:24:04;6.60;99.90
9907;DHT22;4992;51.628;6.664;2023-12-20T00:26:30;6.60;99.90
9907;DHT22;4992;51.628;6.664;2023-12-20T00:28:56;6.60;99.90
9907;DHT22;4992;51.628;6.664;2023-12-20T00:31:21;6.60;99.90
9907;DHT22;4992;51.628;6.664;2023-12-20T00:33:47;6.60;99.90
9907;DHT22;4992;51.628;6.664;2023-12-20T00:36:12;6.70;99.90
9907;DHT22;4992;51.628;6.664;2023-12-20T00:38:38;6.70;99.90
9907;DHT22;4992;51.628;6.664;2023-12-20T00:41:03;6.70;99.90
9907;DHT22;4992;51.628;6.664;2023-12-20T00:43:29;6.70;99.90
9907;DHT22;4992;51.628;6.664;2023-12-20T00:45:54;6.80;99.90
9907;DHT22;4992;51.628;6.664;2023-12-20T00:48:21;6.80;99.90
9907;DHT22;4992;51.628;6.664;2023-12-20T00:50:46;6.80;99.90
9907;DHT22;4992;51.628;6.664;2023-12-20T00:53:12;6.80;99.90
9907;DHT22;4992;51.628;6.664;2023-12-20T00:55:37;6.80;99.90
9907;DHT22;4992;51.628;6.664;2023-12-20T00:58:03;6.80;99.90
9907;DHT22;4992;51.628;6.664;2023-12-20T01:00:29;6.80;99.90
9907;DHT22;4992;51.628;6.664;2023-12-20T01:02:54;6.70;99.90
9907;DHT22;4992;51.628;6.664;2023-12-20T01:05:20;6.70;99.90
9907;DHT22;4992;51.628;6.664;2023-12-20T01:07:48;6.60;99.90
9907;DHT22;4992;51.628;6.664;2023-12-20T01:10:14;6.60;99.90
9907;DHT22;4992;51.628;6.664;2023-12-20T01:12:40;6.50;99.90
9907;DHT22;4992;51.628;6.664;2023-12-20T01:15:06;6.40;99.90
9907;DHT22;4992;51.628;6.664;2023-12-20T01:17:31;6.40;99.90
9907;DHT22;4992;51.628;6.664;2023-12-20T01:19:57;6.40;99.90
9907;DHT22;4992;51.628;6.664;2023-12-20T01:22:23;6.40;99.90
9907;DHT22;4992;51.628;6.664;2023-12-20T01:24:49;6.30;99.90
9907;DHT22;4992;51.628;6.664;2023-12-20T01:27:14;6.30;99.90
9907;DHT22;4992;51.628;6.664;2023-12-20T01:29:40;6.30;99.90
9907;DHT22;4992;51.628;6.664;2023-12-20T01:32:05;6.30;99.90
9907;DHT22;4992;51.628;6.664;2023-12-20T01:34:31;6.30;99.90
9907;DHT22;4992;51.628;6.664;2023-12-20T01:36:57;6.30;99.90
9907;DHT22;4992;51.628;6.664;2023-12-20T01:39:23;6.30;99.90
9907;DHT22;4992;51.628;6.664;2023-12-20T01:41:48;6.20;99.90
9907;DHT22;4992;51.628;6.664;2023-12-20T01:44:14;6.20;99.90
9907;DHT22;4992;51.628;6.664;2023-12-20T01:46:39;6.10;99.90
9907;DHT22;4992;51.628;6.664;2023-12-20T01:49:06;6.10;99.90
9907;DHT22;4992;51.628;6.664;2023-12-20T01:51:32;6.00;99.90
9907;DHT22;4992;51.628;6.664;2023-12-20T01:53:59;6.00;99.90
9907;DHT22;4992;51.628;6.664;2023-12-20T01:56:26;6.00;99.90
9907;DHT22;4992;51.628;6.664;2023-12-20T01:58:53;5.90;99.90
9907;DHT22;4992;51.628;6.664;2023-12-20T02:01:20;5.90;99.90
9907;DHT22;4992;51.628;6.664;2023-12-20T02:03:45;5.80;99.90
9907;DHT22;4992;51.628;6.664;2023-12-20T02:06:11;5.80;99.90
9907;DHT22;4992;51.628;6.664;2023-12-20T02:08:37;5.70;99.90
9907;DHT22;4992;51.628;6.664;2023-12-20T02:11:03;5.70;99.90
9907;DHT22;4992;51.628;6.664;2023-12-20T02:13:28;5.70;99.90
9907;DHT22;4992;51.628;6.664;2023-12-20T02:15:57;5.70;99.90
9907;DHT22;4992;51.628;6.664;2023-12-20T02:18:22;5.60;99.90
9907;DHT22;4992;51.628;6.664;2023-12-20T02:20:48;5.60;99.90
9907;DHT22;4992;51.628;6.664;2023-12-20T02:23:14;5.60;99.90
9907;DHT22;4992;51.628;6.664;2023-12-20T02:25:39;5.60;99.90
9907;DHT22;4992;51.628;6.664;2023-12-20T02:28:06;5.60;99.90
9907;DHT22;4992;51.628;6.664;2023-12-20T02:30:32;5.50;99.90
9907;DHT22;4992;51.628;6.664;2023-12-20T02:32:59;5.50;99.90
9907;DHT22;4992;51.628;6.664;2023-12-20T02:38:48;5.50;99.90
9907;DHT22;4992;51.628;6.664;2023-12-20T02:41:13;5.50;99.90
9907;DHT22;4992;51.628;6.664;2023-12-20T02:43:41;5.40;99.90
9907;DHT22;4992;51.628;6.664;2023-12-20T02:46:06;5.40;99.90
9907;DHT22;4992;51.628;6.664;2023-12-20T02:48:32;5.50;99.90
9907;DHT22;4992;51.628;6.664;2023-12-20T02:50:57;5.50;99.90
9907;DHT22;4992;51.628;6.664;2023-12-20T02:53:23;5.50;99.90
9907;DHT22;4992;51.628;6.664;2023-12-20T02:55:48;5.50;99.90
9907;DHT22;4992;51.628;6.664;2023-12-20T02:58:14;5.50;99.90
9907;DHT22;4992;51.628;6.664;2023-12-20T03:00:39;5.50;99.90
9907;DHT22;4992;51.628;6.664;2023-12-20T03:03:05;5.50;99.90
9907;DHT22;4992;51.628;6.664;2023-12-20T03:05:30;5.50;99.90
9907;DHT22;4992;51.628;6.664;2023-12-20T03:07:56;5.50;99.90
9907;DHT22;4992;51.628;6.664;2023-12-20T03:10:22;5.40;99.90
9907;DHT22;4992;51.628;6.664;2023-12-20T03:12:47;5.40;99.90
9907;DHT22;4992;51.628;6.664;2023-12-20T03:15:13;5.40;99.90
9907;DHT22;4992;51.628;6.664;2023-12-20T03:17:38;5.30;99.90
9907;DHT22;4992;51.628;6.664;2023-12-20T03:20:04;5.40;99.90
9907;DHT22;4992;51.628;6.664;2023-12-20T03:22:30;5.40;99.90
9907;DHT22;4992;51.628;6.664;2023-12-20T03:24:55;5.40;99.90
9907;DHT22;4992;51.628;6.664;2023-12-20T03:27:21;5.30;99.90
9907;DHT22;4992;51.628;6.664;2023-12-20T03:29:46;5.30;99.90
9907;DHT22;4992;51.628;6.664;2023-12-20T03:32:12;5.30;99.90
9907;DHT22;4992;51.628;6.664;2023-12-20T03:34:37;5.30;99.90
9907;DHT22;4992;51.628;6.664;2023-12-20T03:37:03;5.20;99.90
9907;DHT22;4992;51.628;6.664;2023-12-20T03:39:28;5.20;99.90
9907;DHT22;4992;51.628;6.664;2023-12-20T03:41:54;5.10;99.90
9907;DHT22;4992;51.628;6.664;2023-12-20T03:44:19;5.10;99.90
9907;DHT22;4992;51.628;6.664;2023-12-20T03:46:45;5.10;99.90
9907;DHT22;4992;51.628;6.664;2023-12-20T03:49:11;5.10;99.90
9907;DHT22;4992;51.628;6.664;2023-12-20T03:51:36;5.20;99.90
9907;DHT22;4992;51.628;6.664;2023-12-20T03:54:02;5.20;99.90
9907;DHT22;4992;51.628;6.664;2023-12-20T03:56:28;5.10;99.90
9907;DHT22;4992;51.628;6.664;2023-12-20T03:58:54;5.10;99.90
9907;DHT22;4992;51.628;6.664;2023-12-20T04:01:19;5.20;99.90
9907;DHT22;4992;51.628;6.664;2023-12-20T04:03:44;5.20;99.90
9907;DHT22;4992;51.628;6.664;2023-12-20T04:06:10;5.20;99.90
9907;DHT22;4992;51.628;6.664;2023-12-20T04:08:41;5.10;99.90
9907;DHT22;4992;51.628;6.664;2023-12-20T04:11:06;5.10;99.90
9907;DHT22;4992;51.628;6.664;2023-12-20T04:13:32;5.10;99.90
9907;DHT22;4992;51.628;6.664;2023-12-20T04:15:57;5.10;99.90
9907;DHT22;4992;51.628;6.664;2023-12-20T04:18:23;5.20;99.90
9907;DHT22;4992;51.628;6.664;2023-12-20T04:20:48;5.10;99.90
9907;DHT22;4992;51.628;6.664;2023-12-20T04:23:14;5.20;99.90
9907;DHT22;4992;51.628;6.664;2023-12-20T04:25:40;5.10;99.90
9907;DHT22;4992;51.628;6.664;2023-12-20T04:28:05;5.10;99.90
9907;DHT22;4992;51.628;6.664;2023-12-20T04:30:31;5.20;99.90
9907;DHT22;4992;51.628;6.664;2023-12-20T04:32:56;5.20;99.90
9907;DHT22;4992;51.628;6.664;2023-12-20T04:35:22;5.20;99.90
9907;DHT22;4992;51.628;6.664;2023-12-20T04:37:48;5.20;99.90
9907;DHT22;4992;51.628;6.664;2023-12-20T04:40:14;5.20;99.90
9907;DHT22;4992;51.628;6.664;2023-12-20T04:42:40;5.20;99.90
9907;DHT22;4992;51.628;6.664;2023-12-20T04:45:06;5.10;99.90
9907;DHT22;4992;51.628;6.664;2023-12-20T04:47:31;5.10;99.90
9907;DHT22;4992;51.628;6.664;2023-12-20T04:49:57;5.10;99.90
9907;DHT22;4992;51.628;6.664;2023-12-20T04:52:22;5.10;99.90
9907;DHT22;4992;51.628;6.664;2023-12-20T04:54:48;5.10;99.90
9907;DHT22;4992;51.628;6.664;2023-12-20T04:57:13;5.20;99.90
9907;DHT22;4992;51.628;6.664;2023-12-20T04:59:39;5.20;99.90
9907;DHT22;4992;51.628;6.664;2023-12-20T05:02:05;5.20;99.90
9907;DHT22;4992;51.628;6.664;2023-12-20T05:04:30;5.30;99.90
9907;DHT22;4992;51.628;6.664;2023-12-20T05:06:56;5.30;99.90
9907;DHT22;4992;51.628;6.664;2023-12-20T05:09:21;5.30;99.90
9907;DHT22;4992;51.628;6.664;2023-12-20T05:11:46;5.30;99.90
9907;DHT22;4992;51.628;6.664;2023-12-20T05:14:12;5.40;99.90
9907;DHT22;4992;51.628;6.664;2023-12-20T05:16:37;5.40;99.90
9907;DHT22;4992;51.628;6.664;2023-12-20T05:19:03;5.40;99.90
9907;DHT22;4992;51.628;6.664;2023-12-20T05:21:32;5.40;99.90
9907;DHT22;4992;51.628;6.664;2023-12-20T05:23:57;5.40;99.90
9907;DHT22;4992;51.628;6.664;2023-12-20T05:26:23;5.40;99.90
9907;DHT22;4992;51.628;6.664;2023-12-20T05:28:48;5.50;99.90
9907;DHT22;4992;51.628;6.664;2023-12-20T05:31:14;5.50;99.90
9907;DHT22;4992;51.628;6.664;2023-12-20T05:33:39;5.50;99.90
9907;DHT22;4992;51.628;6.664;2023-12-20T05:36:05;5.50;99.90
9907;DHT22;4992;51.628;6.664;2023-12-20T05:38:30;5.50;99.90
9907;DHT22;4992;51.628;6.664;2023-12-20T05:40:56;5.50;99.90
9907;DHT22;4992;51.628;6.664;2023-12-20T05:43:21;5.60;99.90
9907;DHT22;4992;51.628;6.664;2023-12-20T05:45:47;5.60;99.90
9907;DHT22;4992;51.628;6.664;2023-12-20T05:48:12;5.60;99.90
9907;DHT22;4992;51.628;6.664;2023-12-20T05:50:38;5.60;99.90
9907;DHT22;4992;51.628;6.664;2023-12-20T05:53:04;5.60;99.90
9907;DHT22;4992;51.628;6.664;2023-12-20T05:55:30;5.60;99.90
9907;DHT22;4992;51.628;6.664;2023-12-20T05:57:55;5.70;99.90
9907;DHT22;4992;51.628;6.664;2023-12-20T06:00:21;5.70;99.90
9907;DHT22;4992;51.628;6.664;2023-12-20T06:02:46;5.70;99.90
9907;DHT22;4992;51.628;6.664;2023-12-20T06:05:12;5.70;99.90
9907;DHT22;4992;51.628;6.664;2023-12-20T06:07:37;5.70;99.90
9907;DHT22;4992;51.628;6.664;2023-12-20T06:10:03;5.70;99.90
9907;DHT22;4992;51.628;6.664;2023-12-20T06:12:29;5.70;99.90
9907;DHT22;4992;51.628;6.664;2023-12-20T06:14:57;5.80;99.90
9907;DHT22;4992;51.628;6.664;2023-12-20T06:17:23;5.80;99.90
9907;DHT22;4992;51.628;6.664;2023-12-20T06:19:48;5.80;99.90
9907;DHT22;4992;51.628;6.664;2023-12-20T06:22:15;5.80;99.90
9907;DHT22;4992;51.628;6.664;2023-12-20T06:24:40;5.90;99.90
9907;DHT22;4992;51.628;6.664;2023-12-20T06:27:06;5.80;99.90
9907;DHT22;4992;51.628;6.664;2023-12-20T06:29:31;5.90;99.90
9907;DHT22;4992;51.628;6.664;2023-12-20T06:31:57;5.90;99.90
9907;DHT22;4992;51.628;6.664;2023-12-20T06:34:22;5.90;99.90
9907;DHT22;4992;51.628;6.664;2023-12-20T06:36:48;5.90;99.90
9907;DHT22;4992;51.628;6.664;2023-12-20T06:39:13;6.00;99.90
9907;DHT22;4992;51.628;6.664;2023-12-20T06:41:39;6.00;99.90
9907;DHT22;4992;51.628;6.664;2023-12-20T06:44:05;6.00;99.90
9907;DHT22;4992;51.628;6.664;2023-12-20T06:46:30;6.00;99.90
9907;DHT22;4992;51.628;6.664;2023-12-20T06:48:56;6.10;99.90
9907;DHT22;4992;51.628;6.664;2023-12-20T06:51:21;6.10;99.90
9907;DHT22;4992;51.628;6.664;2023-12-20T06:53:51;6.10;99.90
9907;DHT22;4992;51.628;6.664;2023-12-20T06:56:16;6.10;99.90
9907;DHT22;4992;51.628;6.664;2023-12-20T06:58:42;6.20;99.90
9907;DHT22;4992;51.628;6.664;2023-12-20T07:01:14;6.20;99.90
9907;DHT22;4992;51.628;6.664;2023-12-20T07:03:40;6.20;99.90
9907;DHT22;4992;51.628;6.664;2023-12-20T07:06:06;6.20;99.90
9907;DHT22;4992;51.628;6.664;2023-12-20T07:08:31;6.20;99.90
9907;DHT22;4992;51.628;6.664;2023-12-20T07:10:57;6.20;99.90
9907;DHT22;4992;51.628;6.664;2023-12-20T07:13:23;6.30;99.90
9907;DHT22;4992;51.628;6.664;2023-12-20T07:15:49;6.30;99.90
9907;DHT22;4992;51.628;6.664;2023-12-20T07:18:15;6.30;99.90
9907;DHT22;4992;51.628;6.664;2023-12-20T07:20:40;6.30;99.90
9907;DHT22;4992;51.628;6.664;2023-12-20T07:23:06;6.40;99.90
9907;DHT22;4992;51.628;6.664;2023-12-20T07:25:31;6.40;99.90
9907;DHT22;4992;51.628;6.664;2023-12-20T07:27:58;6.40;99.90
9907;DHT22;4992;51.628;6.664;2023-12-20T07:30:23;6.40;99.90
9907;DHT22;4992;51.628;6.664;2023-12-20T07:32:49;6.40;99.90
9907;DHT22;4992;51.628;6.664;2023-12-20T07:35:18;6.40;99.90
9907;DHT22;4992;51.628;6.664;2023-12-20T07:37:43;6.40;99.90
9907;DHT22;4992;51.628;6.664;2023-12-20T07:40:09;6.50;99.90
9907;DHT22;4992;51.628;6.664;2023-12-20T07:42:35;6.50;99.90
9907;DHT22;4992;51.628;6.664;2023-12-20T07:45:01;6.50;99.90
9907;DHT22;4992;51.628;6.664;2023-12-20T07:47:26;6.50;99.90
9907;DHT22;4992;51.628;6.664;2023-12-20T07:49:52;6.50;99.90
9907;DHT22;4992;51.628;6.664;2023-12-20T07:52:18;6.50;99.90
9907;DHT22;4992;51.628;6.664;2023-12-20T07:54:44;6.50;99.90
9907;DHT22;4992;51.628;6.664;2023-12-20T07:57:10;6.50;99.90
9907;DHT22;4992;51.628;6.664;2023-12-20T07:59:36;6.50;99.90
9907;DHT22;4992;51.628;6.664;2023-12-20T08:02:02;6.60;99.90
9907;DHT22;4992;51.628;6.664;2023-12-20T08:04:27;6.60;99.90
9907;DHT22;4992;51.628;6.664;2023-12-20T08:06:53;6.60;99.90
9907;DHT22;4992;51.628;6.664;2023-12-20T08:09:19;6.60;99.90
9907;DHT22;4992;51.628;6.664;2023-12-20T08:11:48;6.60;99.90
9907;DHT22;4992;51.628;6.664;2023-12-20T08:14:14;6.60;99.90
9907;DHT22;4992;51.628;6.664;2023-12-20T08:16:39;6.60;99.90
9907;DHT22;4992;51.628;6.664;2023-12-20T08:19:05;6.70;99.90
9907;DHT22;4992;51.628;6.664;2023-12-20T08:21:31;6.70;99.90
9907;DHT22;4992;51.628;6.664;2023-12-20T08:23:56;6.70;99.90
9907;DHT22;4992;51.628;6.664;2023-12-20T08:26:22;6.60;99.90
9907;DHT22;4992;51.628;6.664;2023-12-20T08:28:49;6.70;99.90
9907;DHT22;4992;51.628;6.664;2023-12-20T08:31:16;6.70;99.90
9907;DHT22;4992;51.628;6.664;2023-12-20T08:33:43;6.70;99.90
9907;DHT22;4992;51.628;6.664;2023-12-20T08:36:09;6.70;99.90
9907;DHT22;4992;51.628;6.664;2023-12-20T08:38:34;6.70;99.90
9907;DHT22;4992;51.628;6.664;2023-12-20T08:41:00;6.70;99.90
9907;DHT22;4992;51.628;6.664;2023-12-20T08:43:26;6.70;99.90
9907;DHT22;4992;51.628;6.664;2023-12-20T08:45:52;6.70;99.90
9907;DHT22;4992;51.628;6.664;2023-12-20T08:48:17;6.70;99.90
9907;DHT22;4992;51.628;6.664;2023-12-20T08:50:43;6.70;99.90
9907;DHT22;4992;51.628;6.664;2023-12-20T08:53:09;6.70;99.90
9907;DHT22;4992;51.628;6.664;2023-12-20T08:55:34;6.80;99.90
9907;DHT22;4992;51.628;6.664;2023-12-20T08:57:59;6.80;99.90
9907;DHT22;4992;51.628;6.664;2023-12-20T09:00:25;6.80;99.90
9907;DHT22;4992;51.628;6.664;2023-12-20T09:02:53;6.80;99.90
9907;DHT22;4992;51.628;6.664;2023-12-20T09:05:19;6.80;99.90
9907;DHT22;4992;51.628;6.664;2023-12-20T09:07:45;6.80;99.90
9907;DHT22;4992;51.628;6.664;2023-12-20T09:10:10;6.80;99.90
9907;DHT22;4992;51.628;6.664;2023-12-20T09:12:36;6.80;99.90
9907;DHT22;4992;51.628;6.664;2023-12-20T09:15:05;6.80;99.90
9907;DHT22;4992;51.628;6.664;2023-12-20T09:17:30;6.80;99.90
9907;DHT22;4992;51.628;6.664;2023-12-20T09:19:56;6.80;99.90
9907;DHT22;4992;51.628;6.664;2023-12-20T09:22:22;6.80;99.90
9907;DHT22;4992;51.628;6.664;2023-12-20T09:24:47;6.80;99.90
9907;DHT22;4992;51.628;6.664;2023-12-20T09:27:13;6.80;99.90
9907;DHT22;4992;51.628;6.664;2023-12-20T09:29:38;6.80;99.90
9907;DHT22;4992;51.628;6.664;2023-12-20T09:32:04;6.80;99.90
9907;DHT22;4992;51.628;6.664;2023-12-20T09:34:29;6.80;99.90
9907;DHT22;4992;51.628;6.664;2023-12-20T09:36:55;6.80;99.90
9907;DHT22;4992;51.628;6.664;2023-12-20T09:39:21;6.80;99.90
9907;DHT22;4992;51.628;6.664;2023-12-20T09:41:58;6.80;99.90
9907;DHT22;4992;51.628;6.664;2023-12-20T09:44:25;6.90;99.90
9907;DHT22;4992;51.628;6.664;2023-12-20T09:46:51;6.90;99.90
9907;DHT22;4992;51.628;6.664;2023-12-20T09:49:18;7.00;99.90
9907;DHT22;4992;51.628;6.664;2023-12-20T09:51:46;7.00;99.90
9907;DHT22;4992;51.628;6.664;2023-12-20T09:54:19;7.00;99.90
9907;DHT22;4992;51.628;6.664;2023-12-20T09:56:46;7.00;99.90
9907;DHT22;4992;51.628;6.664;2023-12-20T09:59:11;7.00;99.90
9907;DHT22;4992;51.628;6.664;2023-12-20T10:01:39;7.00;99.90
9907;DHT22;4992;51.628;6.664;2023-12-20T10:04:06;6.90;99.90
9907;DHT22;4992;51.628;6.664;2023-12-20T10:06:36;7.00;99.90
9907;DHT22;4992;51.628;6.664;2023-12-20T10:09:01;6.90;99.90
9907;DHT22;4992;51.628;6.664;2023-12-20T10:11:27;7.00;99.90
9907;DHT22;4992;51.628;6.664;2023-12-20T10:13:59;7.00;99.90
9907;DHT22;4992;51.628;6.664;2023-12-20T10:16:25;7.00;99.90
9907;DHT22;4992;51.628;6.664;2023-12-20T10:18:53;7.00;99.90
9907;DHT22;4992;51.628;6.664;2023-12-20T10:21:18;7.00;99.90
9907;DHT22;4992;51.628;6.664;2023-12-20T10:23:44;7.10;99.90
9907;DHT22;4992;51.628;6.664;2023-12-20T10:26:19;7.10;99.90
9907;DHT22;4992;51.628;6.664;2023-12-20T10:28:45;7.10;99.90
9907;DHT22;4992;51.628;6.664;2023-12-20T10:31:14;7.10;99.90
9907;DHT22;4992;51.628;6.664;2023-12-20T10:33:50;7.10;99.90
9907;DHT22;4992;51.628;6.664;2023-12-20T10:36:16;7.10;99.90
9907;DHT22;4992;51.628;6.664;2023-12-20T10:38:42;7.10;99.90
9907;DHT22;4992;51.628;6.664;2023-12-20T10:41:09;7.20;99.90
9907;DHT22;4992;51.628;6.664;2023-12-20T10:43:35;7.30;99.90
9907;DHT22;4992;51.628;6.664;2023-12-20T10:46:03;7.40;99.90
9907;DHT22;4992;51.628;6.664;2023-12-20T10:48:30;7.60;99.90
9907;DHT22;4992;51.628;6.664;2023-12-20T10:50:57;7.80;99.90
9907;DHT22;4992;51.628;6.664;2023-12-20T10:53:24;7.90;99.90
9907;DHT22;4992;51.628;6.664;2023-12-20T10:55:52;8.00;99.90
9907;DHT22;4992;51.628;6.664;2023-12-20T10:58:20;7.90;99.90
9907;DHT22;4992;51.628;6.664;2023-12-20T11:00:49;7.80;99.90
9907;DHT22;4992;51.628;6.664;2023-12-20T11:03:17;7.70;99.90
9907;DHT22;4992;51.628;6.664;2023-12-20T11:05:54;7.60;99.90
9907;DHT22;4992;51.628;6.664;2023-12-20T11:08:33;7.50;99.90
9907;DHT22;4992;51.628;6.664;2023-12-20T11:14:07;7.40;99.90
9907;DHT22;4992;51.628;6.664;2023-12-20T11:16:37;7.40;99.90
9907;DHT22;4992;51.628;6.664;2023-12-20T11:19:06;7.40;99.90
9907;DHT22;4992;51.628;6.664;2023-12-20T11:21:31;7.40;99.90
9907;DHT22;4992;51.628;6.664;2023-12-20T11:23:57;7.40;99.90
9907;DHT22;4992;51.628;6.664;2023-12-20T11:26:26;7.40;99.90
9907;DHT22;4992;51.628;6.664;2023-12-20T11:28:53;7.30;99.90
9907;DHT22;4992;51.628;6.664;2023-12-20T11:31:18;7.30;99.90
9907;DHT22;4992;51.628;6.664;2023-12-20T11:33:44;7.30;99.90
9907;DHT22;4992;51.628;6.664;2023-12-20T11:36:14;7.30;99.90
9907;DHT22;4992;51.628;6.664;2023-12-20T11:38:54;7.30;99.90
9907;DHT22;4992;51.628;6.664;2023-12-20T11:41:22;7.30;99.90
9907;DHT22;4992;51.628;6.664;2023-12-20T11:43:53;7.20;99.90
9907;DHT22;4992;51.628;6.664;2023-12-20T11:46:19;7.20;99.90
9907;DHT22;4992;51.628;6.664;2023-12-20T11:48:45;7.20;99.90
9907;DHT22;4992;51.628;6.664;2023-12-20T11:51:11;7.10;99.90
9907;DHT22;4992;51.628;6.664;2023-12-20T11:53:38;7.10;99.90
9907;DHT22;4992;51.628;6.664;2023-12-20T11:56:07;7.10;99.90
9907;DHT22;4992;51.628;6.664;2023-12-20T11:58:33;7.10;99.90
9907;DHT22;4992;51.628;6.664;2023-12-20T12:00:59;7.20;99.90
9907;DHT22;4992;51.628;6.664;2023-12-20T12:03:25;7.20;99.90
9907;DHT22;4992;51.628;6.664;2023-12-20T12:05:51;7.20;99.90
9907;DHT22;4992;51.628;6.664;2023-12-20T12:08:19;7.20;99.90
9907;DHT22;4992;51.628;6.664;2023-12-20T12:10:45;7.30;99.90
9907;DHT22;4992;51.628;6.664;2023-12-20T12:13:11;7.30;99.90
9907;DHT22;4992;51.628;6.664;2023-12-20T12:15:37;7.30;99.90
9907;DHT22;4992;51.628;6.664;2023-12-20T12:18:03;7.30;99.90
9907;DHT22;4992;51.628;6.664;2023-12-20T12:20:29;7.40;99.90
9907;DHT22;4992;51.628;6.664;2023-12-20T12:23:02;7.40;99.90
9907;DHT22;4992;51.628;6.664;2023-12-20T12:25:29;7.40;99.90
9907;DHT22;4992;51.628;6.664;2023-12-20T12:27:56;7.50;99.90
9907;DHT22;4992;51.628;6.664;2023-12-20T12:30:22;7.50;99.90
9907;DHT22;4992;51.628;6.664;2023-12-20T12:32:48;7.40;99.90
9907;DHT22;4992;51.628;6.664;2023-12-20T12:35:14;7.50;99.90
9907;DHT22;4992;51.628;6.664;2023-12-20T12:37:41;7.50;99.90
9907;DHT22;4992;51.628;6.664;2023-12-20T12:40:10;7.50;99.90
9907;DHT22;4992;51.628;6.664;2023-12-20T12:42:40;7.60;99.90
9907;DHT22;4992;51.628;6.664;2023-12-20T12:45:06;7.60;99.90
9907;DHT22;4992;51.628;6.664;2023-12-20T12:47:32;7.70;99.90
9907;DHT22;4992;51.628;6.664;2023-12-20T12:49:58;7.70;99.90
9907;DHT22;4992;51.628;6.664;2023-12-20T12:52:24;7.70;99.90
9907;DHT22;4992;51.628;6.664;2023-12-20T12:54:49;7.80;99.90
9907;DHT22;4992;51.628;6.664;2023-12-20T12:57:15;7.80;99.90
9907;DHT22;4992;51.628;6.664;2023-12-20T12:59:44;7.80;99.90
9907;DHT22;4992;51.628;6.664;2023-12-20T13:02:14;7.80;99.90
9907;DHT22;4992;51.628;6.664;2023-12-20T13:04:43;7.70;99.90
9907;DHT22;4992;51.628;6.664;2023-12-20T13:07:09;7.70;99.90
9907;DHT22;4992;51.628;6.664;2023-12-20T13:09:39;7.70;99.90
9907;DHT22;4992;51.628;6.664;2023-12-20T13:12:06;7.70;99.90
9907;DHT22;4992;51.628;6.664;2023-12-20T13:14:35;7.70;99.90
9907;DHT22;4992;51.628;6.664;2023-12-20T13:17:02;7.70;99.90
9907;DHT22;4992;51.628;6.664;2023-12-20T13:19:29;7.70;99.90
9907;DHT22;4992;51.628;6.664;2023-12-20T13:21:55;7.70;99.90
9907;DHT22;4992;51.628;6.664;2023-12-20T13:24:21;7.70;99.90
9907;DHT22;4992;51.628;6.664;2023-12-20T13:26:46;7.70;99.90
9907;DHT22;4992;51.628;6.664;2023-12-20T13:29:12;7.70;99.90
9907;DHT22;4992;51.628;6.664;2023-12-20T13:31:38;7.70;99.90
9907;DHT22;4992;51.628;6.664;2023-12-20T13:34:05;7.60;99.90
9907;DHT22;4992;51.628;6.664;2023-12-20T13:36:31;7.60;99.90
9907;DHT22;4992;51.628;6.664;2023-12-20T13:38:57;7.60;99.90
9907;DHT22;4992;51.628;6.664;2023-12-20T13:41:23;7.60;99.90
9907;DHT22;4992;51.628;6.664;2023-12-20T13:43:48;7.60;99.90
9907;DHT22;4992;51.628;6.664;2023-12-20T13:46:14;7.60;99.90
9907;DHT22;4992;51.628;6.664;2023-12-20T13:48:40;7.60;99.90
9907;DHT22;4992;51.628;6.664;2023-12-20T13:51:05;7.60;99.90
9907;DHT22;4992;51.628;6.664;2023-12-20T13:53:31;7.60;99.90
9907;DHT22;4992;51.628;6.664;2023-12-20T13:55:57;7.60;99.90
9907;DHT22;4992;51.628;6.664;2023-12-20T13:58:23;7.60;99.90
9907;DHT22;4992;51.628;6.664;2023-12-20T14:00:49;7.60;99.90
9907;DHT22;4992;51.628;6.664;2023-12-20T14:03:14;7.60;99.90
9907;DHT22;4992;51.628;6.664;2023-12-20T14:05:40;7.50;99.90
9907;DHT22;4992;51.628;6.664;2023-12-20T14:08:06;7.50;99.90
9907;DHT22;4992;51.628;6.664;2023-12-20T14:10:32;7.50;99.90
9907;DHT22;4992;51.628;6.664;2023-12-20T14:12:58;7.50;99.90
9907;DHT22;4992;51.628;6.664;2023-12-20T14:15:23;7.50;99.90
9907;DHT22;4992;51.628;6.664;2023-12-20T14:17:50;7.40;99.90
9907;DHT22;4992;51.628;6.664;2023-12-20T14:20:16;7.40;99.90
9907;DHT22;4992;51.628;6.664;2023-12-20T14:22:41;7.40;99.90
9907;DHT22;4992;51.628;6.664;2023-12-20T14:25:14;7.40;99.90
9907;DHT22;4992;51.628;6.664;2023-12-20T14:27:40;7.40;99.90
9907;DHT22;4992;51.628;6.664;2023-12-20T14:30:09;7.40;99.90
9907;DHT22;4992;51.628;6.664;2023-12-20T14:32:35;7.50;99.90
9907;DHT22;4992;51.628;6.664;2023-12-20T14:35:07;7.50;99.90
9907;DHT22;4992;51.628;6.664;2023-12-20T14:37:34;7.50;99.90
9907;DHT22;4992;51.628;6.664;2023-12-20T14:39:59;7.50;99.90
9907;DHT22;4992;51.628;6.664;2023-12-20T14:42:25;7.50;99.90
9907;DHT22;4992;51.628;6.664;2023-12-20T14:44:50;7.50;99.90
9907;DHT22;4992;51.628;6.664;2023-12-20T14:47:17;7.50;99.90
9907;DHT22;4992;51.628;6.664;2023-12-20T14:49:43;7.50;99.90
9907;DHT22;4992;51.628;6.664;2023-12-20T14:52:09;7.40;99.90
9907;DHT22;4992;51.628;6.664;2023-12-20T14:54:37;7.40;99.90
9907;DHT22;4992;51.628;6.664;2023-12-20T14:57:03;7.40;99.90
9907;DHT22;4992;51.628;6.664;2023-12-20T14:59:28;7.50;99.90
9907;DHT22;4992;51.628;6.664;2023-12-20T15:01:54;7.40;99.90
9907;DHT22;4992;51.628;6.664;2023-12-20T15:04:20;7.40;99.90
9907;DHT22;4992;51.628;6.664;2023-12-20T15:06:52;7.50;99.90
9907;DHT22;4992;51.628;6.664;2023-12-20T15:09:17;7.40;99.90
9907;DHT22;4992;51.628;6.664;2023-12-20T15:11:43;7.40;99.90
9907;DHT22;4992;51.628;6.664;2023-12-20T15:14:08;7.50;99.90
9907;DHT22;4992;51.628;6.664;2023-12-20T15:16:35;7.50;99.90
9907;DHT22;4992;51.628;6.664;2023-12-20T15:19:01;7.50;99.90
9907;DHT22;4992;51.628;6.664;2023-12-20T15:21:26;7.50;99.90
9907;DHT22;4992;51.628;6.664;2023-12-20T15:23:57;7.50;99.90
9907;DHT22;4992;51.628;6.664;2023-12-20T15:26:34;7.50;99.90
9907;DHT22;4992;51.628;6.664;2023-12-20T15:29:00;7.50;99.90
9907;DHT22;4992;51.628;6.664;2023-12-20T15:31:29;7.40;99.90
9907;DHT22;4992;51.628;6.664;2023-12-20T15:33:55;7.50;99.90
9907;DHT22;4992;51.628;6.664;2023-12-20T15:36:20;7.50;99.90
9907;DHT22;4992;51.628;6.664;2023-12-20T15:38:46;7.50;99.90
9907;DHT22;4992;51.628;6.664;2023-12-20T15:41:18;7.50;99.90
9907;DHT22;4992;51.628;6.664;2023-12-20T15:43:44;7.50;99.90
9907;DHT22;4992;51.628;6.664;2023-12-20T15:46:10;7.50;99.90
9907;DHT22;4992;51.628;6.664;2023-12-20T15:48:36;7.50;99.90
9907;DHT22;4992;51.628;6.664;2023-12-20T15:51:21;7.50;99.90
9907;DHT22;4992;51.628;6.664;2023-12-20T15:53:47;7.50;99.90
9907;DHT22;4992;51.628;6.664;2023-12-20T15:56:12;7.40;99.90
9907;DHT22;4992;51.628;6.664;2023-12-20T15:58:38;7.50;99.90
9907;DHT22;4992;51.628;6.664;2023-12-20T16:01:03;7.50;99.90
9907;DHT22;4992;51.628;6.664;2023-12-20T16:03:29;7.40;99.90
9907;DHT22;4992;51.628;6.664;2023-12-20T16:05:55;7.50;99.90
9907;DHT22;4992;51.628;6.664;2023-12-20T16:08:21;7.50;99.90
9907;DHT22;4992;51.628;6.664;2023-12-20T16:10:47;7.40;99.90
9907;DHT22;4992;51.628;6.664;2023-12-20T16:13:12;7.40;99.90
9907;DHT22;4992;51.628;6.664;2023-12-20T16:15:38;7.50;99.90
9907;DHT22;4992;51.628;6.664;2023-12-20T16:18:03;7.40;99.90